sensor_id;sensor_type;location;lat;lon;timestamp;temperature;humidity
4795;DHT22;2411;47.060;15.064;2023-01-29T00:01:57;-0.60;45.70
4795;DHT22;2411;47.060;15.064;2023-01-29T00:04:25;-0.60;50.40
4795;DHT22;2411;47.060;15.064;2023-01-29T00:06:52;-0.70;51.40
4795;DHT22;2411;47.060;15.064;2023-01-29T00:09:19;-0.70;53.20
4795;DHT22;2411;47.060;15.064;2023-01-29T00:11:47;-0.70;54.80
4795;DHT22;2411;47.060;15.064;2023-01-29T00:14:14;-0.70;54.30
4795;DHT22;2411;47.060;15.064;2023-01-29T00:16:41;-0.60;54.00
4795;DHT22;2411;47.060;15.064;2023-01-29T00:19:09;-0.50;50.80
4795;DHT22;2411;47.060;15.064;2023-01-29T00:21:36;-0.40;49.20
4795;DHT22;2411;47.060;15.064;2023-01-29T00:24:03;-0.40;44.90
4795;DHT22;2411;47.060;15.064;2023-01-29T00:26:31;-0.30;42.50
4795;DHT22;2411;47.060;15.064;2023-01-29T00:28:58;-0.30;41.80
4795;DHT22;2411;47.060;15.064;2023-01-29T00:31:28;-0.30;37.70
4795;DHT22;2411;47.060;15.064;2023-01-29T00:33:56;-0.20;37.00
4795;DHT22;2411;47.060;15.064;2023-01-29T00:36:25;-0.20;35.70
4795;DHT22;2411;47.060;15.064;2023-01-29T00:38:59;-0.30;36.50
4795;DHT22;2411;47.060;15.064;2023-01-29T00:41:30;-0.30;38.10
4795;DHT22;2411;47.060;15.064;2023-01-29T00:44:16;-0.30;41.00
4795;DHT22;2411;47.060;15.064;2023-01-29T00:47:03;-0.30;42.60
4795;DHT22;2411;47.060;15.064;2023-01-29T00:49:31;-0.20;40.40
4795;DHT22;2411;47.060;15.064;2023-01-29T00:51:58;-0.30;41.80
4795;DHT22;2411;47.060;15.064;2023-01-29T00:54:43;-0.30;40.90
4795;DHT22;2411;47.060;15.064;2023-01-29T00:57:11;-0.40;41.20
4795;DHT22;2411;47.060;15.064;2023-01-29T00:59:38;-0.30;42.70
4795;DHT22;2411;47.060;15.064;2023-01-29T01:02:05;-0.30;41.60
4795;DHT22;2411;47.060;15.064;2023-01-29T01:04:51;-0.30;45.10
4795;DHT22;2411;47.060;15.064;2023-01-29T01:07:19;-0.40;42.50
4795;DHT22;2411;47.060;15.064;2023-01-29T01:09:46;-0.40;41.90
4795;DHT22;2411;47.060;15.064;2023-01-29T01:12:32;-0.40;43.10
4795;DHT22;2411;47.060;15.064;2023-01-29T01:14:59;-0.30;43.00
4795;DHT22;2411;47.060;15.064;2023-01-29T01:17:26;-0.30;45.10
4795;DHT22;2411;47.060;15.064;2023-01-29T01:19:53;-0.40;45.20
4795;DHT22;2411;47.060;15.064;2023-01-29T01:22:21;-0.30;45.10
4795;DHT22;2411;47.060;15.064;2023-01-29T01:24:48;-0.30;43.80
4795;DHT22;2411;47.060;15.064;2023-01-29T01:27:16;-0.40;43.60
4795;DHT22;2411;47.060;15.064;2023-01-29T01:29:45;-0.50;43.50
4795;DHT22;2411;47.060;15.064;2023-01-29T01:32:13;-0.60;47.40
4795;DHT22;2411;47.060;15.064;2023-01-29T01:34:41;-0.60;50.10
4795;DHT22;2411;47.060;15.064;2023-01-29T01:37:10;-0.60;48.90
4795;DHT22;2411;47.060;15.064;2023-01-29T01:39:38;-0.50;51.30
4795;DHT22;2411;47.060;15.064;2023-01-29T01:42:12;-0.40;50.90
4795;DHT22;2411;47.060;15.064;2023-01-29T01:45:00;-0.40;46.90
4795;DHT22;2411;47.060;15.064;2023-01-29T01:50:06;-0.40;42.70
4795;DHT22;2411;47.060;15.064;2023-01-29T01:52:38;-0.30;45.30
4795;DHT22;2411;47.060;15.064;2023-01-29T01:55:08;-0.40;44.40
4795;DHT22;2411;47.060;15.064;2023-01-29T01:57:37;-0.40;45.50
4795;DHT22;2411;47.060;15.064;2023-01-29T02:00:10;-0.30;47.20
4795;DHT22;2411;47.060;15.064;2023-01-29T02:02:42;-0.30;44.50
4795;DHT22;2411;47.060;15.064;2023-01-29T02:05:33;-0.40;46.00
4795;DHT22;2411;47.060;15.064;2023-01-29T02:08:47;-0.50;47.10
4795;DHT22;2411;47.060;15.064;2023-01-29T02:11:35;-0.50;49.00
4795;DHT22;2411;47.060;15.064;2023-01-29T02:14:03;-0.50;49.50
4795;DHT22;2411;47.060;15.064;2023-01-29T02:16:33;-0.40;50.30
4795;DHT22;2411;47.060;15.064;2023-01-29T02:19:02;-0.50;50.00
4795;DHT22;2411;47.060;15.064;2023-01-29T02:24:44;-0.40;51.30
4795;DHT22;2411;47.060;15.064;2023-01-29T02:30:37;-0.40;51.10
4795;DHT22;2411;47.060;15.064;2023-01-29T02:33:30;-0.40;48.90
4795;DHT22;2411;47.060;15.064;2023-01-29T02:36:30;-0.40;48.70
4795;DHT22;2411;47.060;15.064;2023-01-29T02:42:04;-0.30;51.00
4795;DHT22;2411;47.060;15.064;2023-01-29T02:44:42;-0.30;50.40
4795;DHT22;2411;47.060;15.064;2023-01-29T02:47:17;-0.40;48.10
4795;DHT22;2411;47.060;15.064;2023-01-29T02:50:57;-0.30;48.20
4795;DHT22;2411;47.060;15.064;2023-01-29T02:53:13;-0.20;49.90
4795;DHT22;2411;47.060;15.064;2023-01-29T03:01:34;-0.10;45.60
4795;DHT22;2411;47.060;15.064;2023-01-29T03:04:03;-0.10;44.90
4795;DHT22;2411;47.060;15.064;2023-01-29T03:06:36;-0.20;42.80
4795;DHT22;2411;47.060;15.064;2023-01-29T03:09:19;-0.30;46.10
4795;DHT22;2411;47.060;15.064;2023-01-29T03:11:52;-0.30;47.00
4795;DHT22;2411;47.060;15.064;2023-01-29T03:14:30;-0.30;47.30
4795;DHT22;2411;47.060;15.064;2023-01-29T03:17:21;-0.20;48.50
4795;DHT22;2411;47.060;15.064;2023-01-29T03:19:51;-0.40;45.70
4795;DHT22;2411;47.060;15.064;2023-01-29T03:22:19;-0.40;51.80
4795;DHT22;2411;47.060;15.064;2023-01-29T03:24:57;-0.40;49.50
4795;DHT22;2411;47.060;15.064;2023-01-29T03:27:50;-0.40;50.10
4795;DHT22;2411;47.060;15.064;2023-01-29T03:30:49;-0.50;52.30
4795;DHT22;2411;47.060;15.064;2023-01-29T03:34:05;-0.50;51.60
4795;DHT22;2411;47.060;15.064;2023-01-29T03:36:36;-0.60;74.50
4795;DHT22;2411;47.060;15.064;2023-01-29T03:39:07;-0.50;55.00
4795;DHT22;2411;47.060;15.064;2023-01-29T03:41:37;-0.60;52.30
4795;DHT22;2411;47.060;15.064;2023-01-29T03:44:34;-0.50;54.10
4795;DHT22;2411;47.060;15.064;2023-01-29T03:50:06;-0.50;61.60
4795;DHT22;2411;47.060;15.064;2023-01-29T03:52:49;-0.50;53.10
4795;DHT22;2411;47.060;15.064;2023-01-29T04:00:57;-0.50;50.90
4795;DHT22;2411;47.060;15.064;2023-01-29T04:03:40;-0.40;50.60
4795;DHT22;2411;47.060;15.064;2023-01-29T04:06:16;-0.50;48.70
4795;DHT22;2411;47.060;15.064;2023-01-29T04:08:51;-0.40;49.00
4795;DHT22;2411;47.060;15.064;2023-01-29T04:11:22;-0.50;47.80
4795;DHT22;2411;47.060;15.064;2023-01-29T04:13:50;-0.40;46.90
4795;DHT22;2411;47.060;15.064;2023-01-29T04:16:32;-0.40;46.30
4795;DHT22;2411;47.060;15.064;2023-01-29T04:19:02;-0.40;47.80
4795;DHT22;2411;47.060;15.064;2023-01-29T04:21:31;-0.40;47.10
4795;DHT22;2411;47.060;15.064;2023-01-29T04:23:59;-0.40;44.60
4795;DHT22;2411;47.060;15.064;2023-01-29T04:27:10;-0.40;44.10
4795;DHT22;2411;47.060;15.064;2023-01-29T04:32:31;-0.40;41.80
4795;DHT22;2411;47.060;15.064;2023-01-29T04:37:55;-0.70;43.00
4795;DHT22;2411;47.060;15.064;2023-01-29T04:43:10;-0.70;49.60
4795;DHT22;2411;47.060;15.064;2023-01-29T04:49:11;-0.80;49.10
4795;DHT22;2411;47.060;15.064;2023-01-29T04:52:05;-0.80;50.30
4795;DHT22;2411;47.060;15.064;2023-01-29T04:55:05;-0.80;52.30
4795;DHT22;2411;47.060;15.064;2023-01-29T05:00:17;-0.70;51.20
4795;DHT22;2411;47.060;15.064;2023-01-29T05:02:46;-0.70;48.70
4795;DHT22;2411;47.060;15.064;2023-01-29T05:05:16;-0.80;46.50
4795;DHT22;2411;47.060;15.064;2023-01-29T05:07:46;-0.90;44.20
4795;DHT22;2411;47.060;15.064;2023-01-29T05:10:17;-0.90;45.00
4795;DHT22;2411;47.060;15.064;2023-01-29T05:12:53;-1.00;45.30
4795;DHT22;2411;47.060;15.064;2023-01-29T05:15:25;-1.00;44.70
4795;DHT22;2411;47.060;15.064;2023-01-29T05:17:54;-1.00;44.60
4795;DHT22;2411;47.060;15.064;2023-01-29T05:20:32;-1.00;43.30
4795;DHT22;2411;47.060;15.064;2023-01-29T05:22:59;-1.00;43.80
4795;DHT22;2411;47.060;15.064;2023-01-29T05:25:30;-1.10;43.00
4795;DHT22;2411;47.060;15.064;2023-01-29T05:27:57;-1.10;41.90
4795;DHT22;2411;47.060;15.064;2023-01-29T05:30:36;-1.10;40.80
4795;DHT22;2411;47.060;15.064;2023-01-29T05:33:10;-1.10;38.60
4795;DHT22;2411;47.060;15.064;2023-01-29T05:35:38;-1.20;36.30
4795;DHT22;2411;47.060;15.064;2023-01-29T05:38:05;-1.00;35.50
4795;DHT22;2411;47.060;15.064;2023-01-29T05:40:32;-0.90;33.30
4795;DHT22;2411;47.060;15.064;2023-01-29T05:43:00;-1.00;31.20
4795;DHT22;2411;47.060;15.064;2023-01-29T05:45:27;-1.20;29.60
4795;DHT22;2411;47.060;15.064;2023-01-29T05:47:58;-1.20;28.90
4795;DHT22;2411;47.060;15.064;2023-01-29T05:50:26;-1.10;28.70
4795;DHT22;2411;47.060;15.064;2023-01-29T05:53:00;-1.10;29.40
4795;DHT22;2411;47.060;15.064;2023-01-29T05:55:28;-1.20;28.20
4795;DHT22;2411;47.060;15.064;2023-01-29T05:57:55;-1.20;27.10
4795;DHT22;2411;47.060;15.064;2023-01-29T06:00:23;-1.10;27.70
4795;DHT22;2411;47.060;15.064;2023-01-29T06:02:50;-1.10;26.10
4795;DHT22;2411;47.060;15.064;2023-01-29T06:05:17;-1.10;27.70
4795;DHT22;2411;47.060;15.064;2023-01-29T06:07:44;-1.00;27.40
4795;DHT22;2411;47.060;15.064;2023-01-29T06:10:14;-1.00;26.60
4795;DHT22;2411;47.060;15.064;2023-01-29T06:12:43;-1.20;25.80
4795;DHT22;2411;47.060;15.064;2023-01-29T06:15:11;-1.00;27.50
4795;DHT22;2411;47.060;15.064;2023-01-29T06:17:39;-1.30;23.20
4795;DHT22;2411;47.060;15.064;2023-01-29T06:20:06;-1.40;24.50
4795;DHT22;2411;47.060;15.064;2023-01-29T06:22:34;-1.30;27.00
4795;DHT22;2411;47.060;15.064;2023-01-29T06:25:05;-1.40;26.30
4795;DHT22;2411;47.060;15.064;2023-01-29T06:27:33;-1.40;27.90
4795;DHT22;2411;47.060;15.064;2023-01-29T06:30:00;-1.40;26.60
4795;DHT22;2411;47.060;15.064;2023-01-29T06:32:27;-1.50;24.20
4795;DHT22;2411;47.060;15.064;2023-01-29T06:34:55;-1.50;26.30
4795;DHT22;2411;47.060;15.064;2023-01-29T06:37:22;-1.40;24.30
4795;DHT22;2411;47.060;15.064;2023-01-29T06:39:49;-1.40;24.50
4795;DHT22;2411;47.060;15.064;2023-01-29T06:42:17;-1.50;24.30
4795;DHT22;2411;47.060;15.064;2023-01-29T06:44:44;-1.50;23.90
4795;DHT22;2411;47.060;15.064;2023-01-29T06:47:11;-1.60;40.00
4795;DHT22;2411;47.060;15.064;2023-01-29T06:49:38;-1.60;25.10
4795;DHT22;2411;47.060;15.064;2023-01-29T06:52:06;-1.70;26.00
4795;DHT22;2411;47.060;15.064;2023-01-29T06:54:33;-1.60;27.10
4795;DHT22;2411;47.060;15.064;2023-01-29T06:57:00;-1.60;19.70
4795;DHT22;2411;47.060;15.064;2023-01-29T06:59:27;-1.50;16.90
4795;DHT22;2411;47.060;15.064;2023-01-29T07:01:55;-1.40;17.40
4795;DHT22;2411;47.060;15.064;2023-01-29T07:04:22;-1.50;16.80
4795;DHT22;2411;47.060;15.064;2023-01-29T07:06:49;-1.50;17.60
4795;DHT22;2411;47.060;15.064;2023-01-29T07:09:16;-1.40;18.50
4795;DHT22;2411;47.060;15.064;2023-01-29T07:11:43;-1.30;18.30
4795;DHT22;2411;47.060;15.064;2023-01-29T07:14:11;-1.40;18.30
4795;DHT22;2411;47.060;15.064;2023-01-29T07:16:38;-1.50;18.80
4795;DHT22;2411;47.060;15.064;2023-01-29T07:19:05;-1.50;19.70
4795;DHT22;2411;47.060;15.064;2023-01-29T07:21:32;-1.40;20.50
4795;DHT22;2411;47.060;15.064;2023-01-29T07:24:00;-1.20;21.40
4795;DHT22;2411;47.060;15.064;2023-01-29T07:26:27;-1.20;19.20
4795;DHT22;2411;47.060;15.064;2023-01-29T07:28:54;-1.10;19.40
4795;DHT22;2411;47.060;15.064;2023-01-29T07:31:22;-1.10;18.40
4795;DHT22;2411;47.060;15.064;2023-01-29T07:33:49;-1.20;17.60
4795;DHT22;2411;47.060;15.064;2023-01-29T07:36:16;-1.20;17.60
4795;DHT22;2411;47.060;15.064;2023-01-29T07:38:48;-1.50;17.20
4795;DHT22;2411;47.060;15.064;2023-01-29T07:41:16;-1.40;19.50
4795;DHT22;2411;47.060;15.064;2023-01-29T07:43:43;-1.60;26.50
4795;DHT22;2411;47.060;15.064;2023-01-29T07:46:10;-1.50;20.30
4795;DHT22;2411;47.060;15.064;2023-01-29T07:48:38;-1.50;20.30
4795;DHT22;2411;47.060;15.064;2023-01-29T07:51:05;-1.40;19.50
4795;DHT22;2411;47.060;15.064;2023-01-29T07:53:33;-1.30;18.60
4795;DHT22;2411;47.060;15.064;2023-01-29T07:56:00;-1.10;16.90
4795;DHT22;2411;47.060;15.064;2023-01-29T07:58:28;-1.00;15.60
4795;DHT22;2411;47.060;15.064;2023-01-29T08:00:55;-1.10;14.30
4795;DHT22;2411;47.060;15.064;2023-01-29T08:03:23;-1.10;14.30
4795;DHT22;2411;47.060;15.064;2023-01-29T08:05:50;-0.90;15.40
4795;DHT22;2411;47.060;15.064;2023-01-29T08:08:17;-0.70;13.50
4795;DHT22;2411;47.060;15.064;2023-01-29T08:10:45;-0.70;12.90
4795;DHT22;2411;47.060;15.064;2023-01-29T08:13:13;-0.60;13.70
4795;DHT22;2411;47.060;15.064;2023-01-29T08:15:44;-0.90;10.70
4795;DHT22;2411;47.060;15.064;2023-01-29T08:18:12;-0.80;10.90
4795;DHT22;2411;47.060;15.064;2023-01-29T08:20:40;-0.90;11.00
4795;DHT22;2411;47.060;15.064;2023-01-29T08:23:14;-1.00;11.10
4795;DHT22;2411;47.060;15.064;2023-01-29T08:25:41;-0.90;11.00
4795;DHT22;2411;47.060;15.064;2023-01-29T08:28:09;-0.90;10.40
4795;DHT22;2411;47.060;15.064;2023-01-29T08:30:38;-1.00;9.70
4795;DHT22;2411;47.060;15.064;2023-01-29T08:33:05;-0.90;9.50
4795;DHT22;2411;47.060;15.064;2023-01-29T08:35:32;-0.80;8.50
4795;DHT22;2411;47.060;15.064;2023-01-29T08:38:01;-0.60;8.40
4795;DHT22;2411;47.060;15.064;2023-01-29T08:40:31;-0.50;7.70
4795;DHT22;2411;47.060;15.064;2023-01-29T08:43:04;-0.50;7.60
4795;DHT22;2411;47.060;15.064;2023-01-29T08:45:37;-0.40;8.20
4795;DHT22;2411;47.060;15.064;2023-01-29T08:48:05;-0.40;6.60
4795;DHT22;2411;47.060;15.064;2023-01-29T08:50:33;-0.40;5.50
4795;DHT22;2411;47.060;15.064;2023-01-29T08:53:03;-0.60;5.20
4795;DHT22;2411;47.060;15.064;2023-01-29T08:55:31;-0.60;19.70
4795;DHT22;2411;47.060;15.064;2023-01-29T08:57:58;-0.40;6.90
4795;DHT22;2411;47.060;15.064;2023-01-29T09:00:25;-0.40;5.30
4795;DHT22;2411;47.060;15.064;2023-01-29T09:02:53;-0.40;5.20
4795;DHT22;2411;47.060;15.064;2023-01-29T09:05:20;-0.50;3.70
4795;DHT22;2411;47.060;15.064;2023-01-29T09:07:47;-0.40;18.50
4795;DHT22;2411;47.060;15.064;2023-01-29T09:10:15;-0.30;5.60
4795;DHT22;2411;47.060;15.064;2023-01-29T09:12:42;-0.50;3.40
4795;DHT22;2411;47.060;15.064;2023-01-29T09:15:10;-0.30;4.60
4795;DHT22;2411;47.060;15.064;2023-01-29T09:17:37;-0.30;5.40
4795;DHT22;2411;47.060;15.064;2023-01-29T09:20:05;-0.30;18.90
4795;DHT22;2411;47.060;15.064;2023-01-29T09:22:32;-0.20;3.90
4795;DHT22;2411;47.060;15.064;2023-01-29T09:25:00;-0.20;3.50
4795;DHT22;2411;47.060;15.064;2023-01-29T09:27:27;-0.20;3.00
4795;DHT22;2411;47.060;15.064;2023-01-29T09:29:54;-0.20;4.20
4795;DHT22;2411;47.060;15.064;2023-01-29T09:32:22;-0.30;3.00
4795;DHT22;2411;47.060;15.064;2023-01-29T09:35:09;-0.30;3.30
4795;DHT22;2411;47.060;15.064;2023-01-29T09:37:36;-0.20;4.10
4795;DHT22;2411;47.060;15.064;2023-01-29T09:40:04;-0.10;3.90
4795;DHT22;2411;47.060;15.064;2023-01-29T09:42:44;-0.20;3.60
4795;DHT22;2411;47.060;15.064;2023-01-29T09:45:20;0.10;4.60
4795;DHT22;2411;47.060;15.064;2023-01-29T09:47:52;-0.10;3.20
4795;DHT22;2411;47.060;15.064;2023-01-29T09:50:35;0.00;3.30
4795;DHT22;2411;47.060;15.064;2023-01-29T09:53:22;-0.10;3.10
4795;DHT22;2411;47.060;15.064;2023-01-29T09:58:32;0.30;4.00
4795;DHT22;2411;47.060;15.064;2023-01-29T10:01:11;0.20;1.50
4795;DHT22;2411;47.060;15.064;2023-01-29T10:06:50;0.30;3.30
4795;DHT22;2411;47.060;15.064;2023-01-29T10:20:37;1.20;4.40
4795;DHT22;2411;47.060;15.064;2023-01-29T10:25:47;0.90;3.40
4795;DHT22;2411;47.060;15.064;2023-01-29T10:28:43;1.10;3.90
4795;DHT22;2411;47.060;15.064;2023-01-29T10:31:19;1.00;2.40
4795;DHT22;2411;47.060;15.064;2023-01-29T10:33:52;1.00;2.50
4795;DHT22;2411;47.060;15.064;2023-01-29T10:36:47;0.80;2.80
4795;DHT22;2411;47.060;15.064;2023-01-29T10:39:18;0.90;1.40
4795;DHT22;2411;47.060;15.064;2023-01-29T10:50:07;1.00;1.40
4795;DHT22;2411;47.060;15.064;2023-01-29T11:00:59;0.80;1.00
4795;DHT22;2411;47.060;15.064;2023-01-29T11:03:28;1.00;1.00
4795;DHT22;2411;47.060;15.064;2023-01-29T11:06:24;1.00;1.00
4795;DHT22;2411;47.060;15.064;2023-01-29T11:12:12;0.60;1.00
4795;DHT22;2411;47.060;15.064;2023-01-29T11:17:31;0.90;1.00
4795;DHT22;2411;47.060;15.064;2023-01-29T11:19:58;0.90;1.00
4795;DHT22;2411;47.060;15.064;2023-01-29T11:22:28;0.70;1.00
4795;DHT22;2411;47.060;15.064;2023-01-29T11:27:55;1.00;1.20
4795;DHT22;2411;47.060;15.064;2023-01-29T11:35:32;0.80;1.00
4795;DHT22;2411;47.060;15.064;2023-01-29T11:40:39;0.50;1.00
4795;DHT22;2411;47.060;15.064;2023-01-29T11:43:18;0.50;1.00
4795;DHT22;2411;47.060;15.064;2023-01-29T11:45:49;0.50;1.00
4795;DHT22;2411;47.060;15.064;2023-01-29T11:48:19;0.70;1.00
4795;DHT22;2411;47.060;15.064;2023-01-29T11:50:56;0.70;1.00
4795;DHT22;2411;47.060;15.064;2023-01-29T11:53:44;0.60;1.00
4795;DHT22;2411;47.060;15.064;2023-01-29T11:56:22;0.40;1.00
4795;DHT22;2411;47.060;15.064;2023-01-29T11:58:52;0.60;1.00
4795;DHT22;2411;47.060;15.064;2023-01-29T12:01:34;0.60;12.10
4795;DHT22;2411;47.060;15.064;2023-01-29T12:04:18;0.40;1.00
4795;DHT22;2411;47.060;15.064;2023-01-29T12:06:47;0.30;1.00
4795;DHT22;2411;47.060;15.064;2023-01-29T12:09:25;0.40;1.00
4795;DHT22;2411;47.060;15.064;2023-01-29T12:11:54;0.20;1.00
4795;DHT22;2411;47.060;15.064;2023-01-29T12:14:29;0.00;1.00
4795;DHT22;2411;47.060;15.064;2023-01-29T12:17:14;0.30;1.00
4795;DHT22;2411;47.060;15.064;2023-01-29T12:19:56;0.40;1.00
4795;DHT22;2411;47.060;15.064;2023-01-29T12:22:39;0.40;1.00
4795;DHT22;2411;47.060;15.064;2023-01-29T12:25:27;0.60;1.00
4795;DHT22;2411;47.060;15.064;2023-01-29T12:28:04;0.50;1.00
4795;DHT22;2411;47.060;15.064;2023-01-29T12:30:38;0.50;1.00
4795;DHT22;2411;47.060;15.064;2023-01-29T12:33:26;0.30;1.00
4795;DHT22;2411;47.060;15.064;2023-01-29T12:36:22;0.30;1.00
4795;DHT22;2411;47.060;15.064;2023-01-29T12:38:51;0.40;1.00
4795;DHT22;2411;47.060;15.064;2023-01-29T12:44:35;0.30;1.00
4795;DHT22;2411;47.060;15.064;2023-01-29T12:47:16;0.40;1.00
4795;DHT22;2411;47.060;15.064;2023-01-29T12:49:49;0.40;1.00
4795;DHT22;2411;47.060;15.064;2023-01-29T12:53:04;0.60;1.00
4795;DHT22;2411;47.060;15.064;2023-01-29T12:55:19;0.30;1.00
4795;DHT22;2411;47.060;15.064;2023-01-29T12:58:02;0.40;1.00
4795;DHT22;2411;47.060;15.064;2023-01-29T13:00:37;0.40;1.00
4795;DHT22;2411;47.060;15.064;2023-01-29T13:11:49;0.30;1.00
4795;DHT22;2411;47.060;15.064;2023-01-29T13:14:56;0.30;1.00
4795;DHT22;2411;47.060;15.064;2023-01-29T13:17:35;0.10;1.00
4795;DHT22;2411;47.060;15.064;2023-01-29T13:20:11;0.30;1.00
4795;DHT22;2411;47.060;15.064;2023-01-29T13:22:39;0.30;1.00
4795;DHT22;2411;47.060;15.064;2023-01-29T13:25:14;0.20;1.00
4795;DHT22;2411;47.060;15.064;2023-01-29T13:27:43;0.30;1.00
4795;DHT22;2411;47.060;15.064;2023-01-29T13:30:29;0.40;1.00
4795;DHT22;2411;47.060;15.064;2023-01-29T13:32:59;0.60;1.00
4795;DHT22;2411;47.060;15.064;2023-01-29T13:35:42;0.80;1.00
4795;DHT22;2411;47.060;15.064;2023-01-29T13:38:39;0.70;1.00
4795;DHT22;2411;47.060;15.064;2023-01-29T13:41:11;0.40;1.00
4795;DHT22;2411;47.060;15.064;2023-01-29T13:43:40;0.50;1.00
4795;DHT22;2411;47.060;15.064;2023-01-29T13:46:11;0.40;1.00
4795;DHT22;2411;47.060;15.064;2023-01-29T13:48:42;0.20;1.00
4795;DHT22;2411;47.060;15.064;2023-01-29T13:51:12;0.20;1.00
4795;DHT22;2411;47.060;15.064;2023-01-29T13:53:43;0.30;1.00
4795;DHT22;2411;47.060;15.064;2023-01-29T13:59:02;0.10;1.00
4795;DHT22;2411;47.060;15.064;2023-01-29T14:04:26;0.20;1.00
4795;DHT22;2411;47.060;15.064;2023-01-29T14:06:56;0.30;1.00
4795;DHT22;2411;47.060;15.064;2023-01-29T14:12:26;0.40;1.00
4795;DHT22;2411;47.060;15.064;2023-01-29T14:17:24;0.10;1.00
4795;DHT22;2411;47.060;15.064;2023-01-29T14:20:01;0.10;5.70
4795;DHT22;2411;47.060;15.064;2023-01-29T14:22:30;0.10;1.00
4795;DHT22;2411;47.060;15.064;2023-01-29T14:25:03;0.20;1.00
4795;DHT22;2411;47.060;15.064;2023-01-29T14:27:31;0.10;1.00
4795;DHT22;2411;47.060;15.064;2023-01-29T14:30:06;0.20;1.00
4795;DHT22;2411;47.060;15.064;2023-01-29T14:32:38;0.00;1.00
4795;DHT22;2411;47.060;15.064;2023-01-29T14:35:18;-0.10;1.00
4795;DHT22;2411;47.060;15.064;2023-01-29T14:37:49;-0.20;1.00
4795;DHT22;2411;47.060;15.064;2023-01-29T14:43:05;-0.10;1.00
4795;DHT22;2411;47.060;15.064;2023-01-29T14:45:38;-0.10;1.00
4795;DHT22;2411;47.060;15.064;2023-01-29T14:50:47;-0.20;11.00
4795;DHT22;2411;47.060;15.064;2023-01-29T14:53:27;-0.20;1.00
4795;DHT22;2411;47.060;15.064;2023-01-29T14:58:51;-0.30;1.00
4795;DHT22;2411;47.060;15.064;2023-01-29T15:01:34;-0.30;1.00
4795;DHT22;2411;47.060;15.064;2023-01-29T15:04:05;-0.30;1.00
4795;DHT22;2411;47.060;15.064;2023-01-29T15:06:45;-0.30;1.00
4795;DHT22;2411;47.060;15.064;2023-01-29T15:09:19;-0.30;1.00
4795;DHT22;2411;47.060;15.064;2023-01-29T15:20:30;-0.30;1.00
4795;DHT22;2411;47.060;15.064;2023-01-29T15:22:59;-0.40;1.00
4795;DHT22;2411;47.060;15.064;2023-01-29T15:25:45;-0.40;1.00
4795;DHT22;2411;47.060;15.064;2023-01-29T15:28:12;-0.30;1.00
4795;DHT22;2411;47.060;15.064;2023-01-29T15:30:41;-0.30;1.00
4795;DHT22;2411;47.060;15.064;2023-01-29T15:33:12;-0.40;1.00
4795;DHT22;2411;47.060;15.064;2023-01-29T15:35:41;-0.50;1.00
4795;DHT22;2411;47.060;15.064;2023-01-29T15:38:20;-0.50;1.00
4795;DHT22;2411;47.060;15.064;2023-01-29T15:41:01;-0.50;1.00
4795;DHT22;2411;47.060;15.064;2023-01-29T15:43:42;-0.50;1.00
4795;DHT22;2411;47.060;15.064;2023-01-29T15:46:44;-0.40;1.00
4795;DHT22;2411;47.060;15.064;2023-01-29T15:49:25;-0.40;1.00
4795;DHT22;2411;47.060;15.064;2023-01-29T15:51:57;-0.40;1.00
4795;DHT22;2411;47.060;15.064;2023-01-29T15:54:29;-0.30;1.00
4795;DHT22;2411;47.060;15.064;2023-01-29T15:56:57;-0.30;1.00
4795;DHT22;2411;47.060;15.064;2023-01-29T15:59:28;-0.20;1.00
4795;DHT22;2411;47.060;15.064;2023-01-29T16:01:56;-0.30;11.10
4795;DHT22;2411;47.060;15.064;2023-01-29T16:04:26;-0.30;1.00
4795;DHT22;2411;47.060;15.064;2023-01-29T16:06:58;-0.30;4.30
4795;DHT22;2411;47.060;15.064;2023-01-29T16:09:27;-0.20;1.00
4795;DHT22;2411;47.060;15.064;2023-01-29T16:11:57;-0.30;1.00
4795;DHT22;2411;47.060;15.064;2023-01-29T16:14:25;-0.20;1.00
4795;DHT22;2411;47.060;15.064;2023-01-29T16:16:54;-0.20;1.00
4795;DHT22;2411;47.060;15.064;2023-01-29T16:19:28;-0.20;1.00
4795;DHT22;2411;47.060;15.064;2023-01-29T16:21:59;-0.30;1.00
4795;DHT22;2411;47.060;15.064;2023-01-29T16:24:28;-0.30;1.00
4795;DHT22;2411;47.060;15.064;2023-01-29T16:26:59;-0.30;1.00
4795;DHT22;2411;47.060;15.064;2023-01-29T16:29:32;-0.40;1.00
4795;DHT22;2411;47.060;15.064;2023-01-29T16:32:01;-0.50;1.00
4795;DHT22;2411;47.060;15.064;2023-01-29T16:34:38;-0.50;1.00
4795;DHT22;2411;47.060;15.064;2023-01-29T16:37:27;-0.50;1.00
4795;DHT22;2411;47.060;15.064;2023-01-29T16:39:55;-0.60;1.00
4795;DHT22;2411;47.060;15.064;2023-01-29T16:42:28;-0.70;1.00
4795;DHT22;2411;47.060;15.064;2023-01-29T16:45:05;-0.60;1.00
4795;DHT22;2411;47.060;15.064;2023-01-29T16:47:59;-0.60;1.00
4795;DHT22;2411;47.060;15.064;2023-01-29T16:50:32;-0.60;1.00
4795;DHT22;2411;47.060;15.064;2023-01-29T16:53:17;-0.60;1.00
4795;DHT22;2411;47.060;15.064;2023-01-29T16:55:48;-0.60;1.00
4795;DHT22;2411;47.060;15.064;2023-01-29T16:58:19;-0.50;1.00
4795;DHT22;2411;47.060;15.064;2023-01-29T17:00:51;-0.50;1.00
4795;DHT22;2411;47.060;15.064;2023-01-29T17:03:19;-0.50;1.00
4795;DHT22;2411;47.060;15.064;2023-01-29T17:05:47;-0.50;1.00
4795;DHT22;2411;47.060;15.064;2023-01-29T17:08:24;-0.50;1.00
4795;DHT22;2411;47.060;15.064;2023-01-29T17:10:52;-0.30;1.00
4795;DHT22;2411;47.060;15.064;2023-01-29T17:15:59;-0.30;1.00
4795;DHT22;2411;47.060;15.064;2023-01-29T17:18:29;-0.30;1.00
4795;DHT22;2411;47.060;15.064;2023-01-29T17:20:56;-0.30;1.00
4795;DHT22;2411;47.060;15.064;2023-01-29T17:23:23;-0.20;1.10
4795;DHT22;2411;47.060;15.064;2023-01-29T17:25:51;-0.20;1.30
4795;DHT22;2411;47.060;15.064;2023-01-29T17:28:18;-0.30;1.00
4795;DHT22;2411;47.060;15.064;2023-01-29T17:30:45;-0.30;1.00
4795;DHT22;2411;47.060;15.064;2023-01-29T17:33:31;-0.30;1.00
4795;DHT22;2411;47.060;15.064;2023-01-29T17:35:58;-0.30;1.00
4795;DHT22;2411;47.060;15.064;2023-01-29T17:38:25;-0.40;1.00
4795;DHT22;2411;47.060;15.064;2023-01-29T17:43:40;-0.20;1.00
4795;DHT22;2411;47.060;15.064;2023-01-29T17:46:12;-0.20;1.00
4795;DHT22;2411;47.060;15.064;2023-01-29T17:48:40;-0.30;1.00
4795;DHT22;2411;47.060;15.064;2023-01-29T17:51:15;-0.30;1.00
4795;DHT22;2411;47.060;15.064;2023-01-29T17:53:43;-0.40;1.00
4795;DHT22;2411;47.060;15.064;2023-01-29T17:56:18;-0.40;1.00
4795;DHT22;2411;47.060;15.064;2023-01-29T17:58:47;-0.50;1.00
4795;DHT22;2411;47.060;15.064;2023-01-29T18:01:15;-0.40;1.00
4795;DHT22;2411;47.060;15.064;2023-01-29T18:03:42;-0.40;1.00
4795;DHT22;2411;47.060;15.064;2023-01-29T18:06:12;-0.50;1.00
4795;DHT22;2411;47.060;15.064;2023-01-29T18:08:41;-0.60;1.00
4795;DHT22;2411;47.060;15.064;2023-01-29T18:11:10;-0.60;1.00
4795;DHT22;2411;47.060;15.064;2023-01-29T18:13:38;-0.60;1.00
4795;DHT22;2411;47.060;15.064;2023-01-29T18:16:08;-0.60;1.00
4795;DHT22;2411;47.060;15.064;2023-01-29T18:18:35;-0.60;1.00
4795;DHT22;2411;47.060;15.064;2023-01-29T18:21:02;-0.50;1.00
4795;DHT22;2411;47.060;15.064;2023-01-29T18:23:30;-0.60;1.00
4795;DHT22;2411;47.060;15.064;2023-01-29T18:25:57;-0.60;1.00
4795;DHT22;2411;47.060;15.064;2023-01-29T18:28:25;-0.70;1.00
4795;DHT22;2411;47.060;15.064;2023-01-29T18:30:52;-0.80;1.00
4795;DHT22;2411;47.060;15.064;2023-01-29T18:33:20;-0.80;1.00
4795;DHT22;2411;47.060;15.064;2023-01-29T18:35:48;-0.80;1.00
4795;DHT22;2411;47.060;15.064;2023-01-29T18:38:16;-0.70;1.00
4795;DHT22;2411;47.060;15.064;2023-01-29T18:40:43;-0.70;1.00
4795;DHT22;2411;47.060;15.064;2023-01-29T18:43:12;-0.70;1.00
4795;DHT22;2411;47.060;15.064;2023-01-29T18:45:40;-0.80;1.00
4795;DHT22;2411;47.060;15.064;2023-01-29T18:48:08;-0.80;1.00
4795;DHT22;2411;47.060;15.064;2023-01-29T18:50:35;-0.70;1.00
4795;DHT22;2411;47.060;15.064;2023-01-29T18:53:03;-0.70;1.00